createdAt,value
2018-03-21T00:01:38.017Z,89.00
2018-03-21T00:04:06.320Z,87.90
2018-03-21T00:06:33.838Z,87.80
2018-03-21T00:09:02.146Z,87.60
2018-03-21T00:11:29.663Z,87.60
2018-03-21T00:13:57.233Z,87.20
2018-03-21T00:16:24.722Z,86.90
2018-03-21T00:18:52.259Z,86.90
2018-03-21T00:21:19.767Z,86.90
2018-03-21T00:23:47.306Z,87.00
2018-03-21T00:26:14.813Z,86.50
2018-03-21T00:28:42.340Z,86.40
2018-03-21T00:31:09.846Z,86.50
2018-03-21T00:33:37.370Z,86.50
2018-03-21T00:36:04.884Z,86.60
2018-03-21T00:38:33.184Z,86.10
2018-03-21T00:41:00.695Z,86.10
2018-03-21T00:43:28.218Z,86.00
2018-03-21T00:45:55.739Z,85.30
2018-03-21T00:48:24.045Z,85.30
2018-03-21T00:50:51.556Z,85.20
2018-03-21T00:53:19.084Z,85.20
2018-03-21T00:55:46.591Z,84.90
2018-03-21T00:58:14.927Z,84.40
2018-03-21T01:00:42.415Z,84.40
2018-03-21T01:03:09.942Z,84.50
2018-03-21T01:05:37.455Z,84.40
2018-03-21T01:08:05.723Z,84.80
2018-03-21T01:10:33.252Z,84.70
2018-03-21T01:13:00.767Z,84.70
2018-03-21T01:15:28.302Z,84.70
2018-03-21T01:17:56.590Z,84.80
2018-03-21T01:20:24.113Z,84.70
2018-03-21T01:22:51.618Z,84.80
2018-03-21T01:25:19.903Z,84.60
2018-03-21T01:27:47.408Z,84.60
2018-03-21T01:30:14.937Z,84.70
2018-03-21T01:32:42.434Z,84.80
2018-03-21T01:35:09.966Z,85.10
2018-03-21T01:37:37.482Z,85.00
2018-03-21T01:40:05.770Z,85.70
2018-03-21T01:42:34.054Z,84.90
2018-03-21T01:45:01.583Z,84.70
2018-03-21T01:47:29.099Z,84.80
2018-03-21T01:49:56.627Z,84.70
2018-03-21T01:52:24.142Z,84.70
2018-03-21T01:54:51.672Z,84.70
2018-03-21T01:57:19.177Z,84.60
2018-03-21T01:59:47.666Z,84.50
2018-03-21T02:02:15.288Z,84.50
2018-03-21T02:04:42.770Z,84.50
2018-03-21T02:07:10.284Z,84.50
2018-03-21T02:09:37.827Z,84.60
2018-03-21T02:12:06.094Z,85.00
2018-03-21T02:14:34.390Z,84.80
2018-03-21T02:17:01.902Z,84.80
2018-03-21T02:19:29.426Z,84.90
2018-03-21T02:21:56.946Z,84.90
2018-03-21T02:24:24.477Z,84.80
2018-03-21T02:26:51.985Z,84.80
2018-03-21T02:29:20.270Z,84.80
2018-03-21T02:31:47.779Z,84.70
2018-03-21T02:34:15.301Z,84.80
2018-03-21T02:36:42.810Z,85.00
2018-03-21T02:39:10.348Z,85.20
2018-03-21T02:41:37.850Z,85.20
2018-03-21T02:44:05.364Z,85.20
2018-03-21T02:46:32.890Z,85.30
2018-03-21T02:49:00.390Z,85.40
2018-03-21T02:51:27.932Z,85.40
2018-03-21T02:53:55.447Z,85.30
2018-03-21T02:56:23.742Z,85.20
2018-03-21T02:58:51.263Z,85.20
2018-03-21T03:01:18.786Z,85.20
2018-03-21T03:03:46.294Z,85.30
2018-03-21T03:06:14.592Z,85.60
2018-03-21T03:08:42.865Z,85.70
2018-03-21T03:11:11.284Z,85.80
2018-03-21T03:13:38.790Z,85.70
2018-03-21T03:16:06.315Z,85.90
2018-03-21T03:18:33.823Z,86.00
2018-03-21T03:21:02.107Z,86.20
2018-03-21T03:23:30.386Z,86.20
2018-03-21T03:25:57.912Z,86.10
2018-03-21T03:28:25.435Z,86.10
2018-03-21T03:30:52.971Z,86.50
2018-03-21T03:33:20.482Z,86.30
2018-03-21T03:35:48.019Z,86.30
2018-03-21T03:38:15.522Z,86.00
2018-03-21T03:40:43.058Z,86.20
2018-03-21T03:43:10.562Z,86.30
2018-03-21T03:45:38.866Z,86.40
2018-03-21T03:48:06.375Z,86.40
2018-03-21T03:50:33.893Z,86.30
2018-03-21T03:53:02.158Z,86.30
2018-03-21T03:55:29.677Z,86.10
2018-03-21T03:57:57.185Z,86.40
2018-03-21T04:00:24.705Z,86.50
2018-03-21T04:02:53.001Z,86.30
2018-03-21T04:05:20.530Z,86.30
2018-03-21T04:07:48.043Z,86.40
2018-03-21T04:10:15.573Z,86.40
2018-03-21T04:12:43.857Z,86.60
2018-03-21T04:15:12.142Z,86.60
2018-03-21T04:17:39.658Z,86.60
2018-03-21T04:20:07.162Z,86.50
2018-03-21T04:22:34.680Z,86.90
2018-03-21T04:25:02.190Z,86.90
2018-03-21T04:27:29.720Z,87.20
2018-03-21T04:29:57.227Z,87.50
2018-03-21T04:32:24.751Z,87.40
2018-03-21T04:34:53.053Z,87.30
2018-03-21T04:37:20.566Z,87.30
2018-03-21T04:39:48.066Z,87.30
2018-03-21T04:42:15.585Z,87.30
2018-03-21T04:44:43.110Z,87.50
2018-03-21T04:47:11.141Z,87.60
2018-03-21T04:49:39.411Z,87.80
2018-03-21T04:52:06.930Z,88.40
2018-03-21T04:54:34.431Z,88.00
2018-03-21T04:57:02.733Z,88.20
2018-03-21T04:59:30.238Z,88.20
2018-03-21T05:01:57.795Z,88.20
2018-03-21T05:04:25.300Z,88.30
2018-03-21T05:06:52.831Z,88.30
2018-03-21T05:09:20.345Z,88.30
2018-03-21T05:11:48.634Z,88.30
2018-03-21T05:14:17.054Z,88.30
2018-03-21T05:16:44.570Z,88.30
2018-03-21T05:19:12.083Z,88.50
2018-03-21T05:21:40.382Z,88.60
2018-03-21T05:24:07.900Z,88.50
2018-03-21T05:26:35.431Z,88.30
2018-03-21T05:29:02.934Z,88.10
2018-03-21T05:31:32.176Z,88.20
2018-03-21T05:33:59.696Z,88.00
2018-03-21T05:36:27.982Z,88.20
2018-03-21T05:38:56.259Z,88.20
2018-03-21T05:41:24.543Z,88.30
2018-03-21T05:43:52.058Z,88.30
2018-03-21T05:46:19.597Z,88.60
2018-03-21T05:48:47.093Z,88.70
2018-03-21T05:51:15.447Z,88.90
2018-03-21T05:53:42.975Z,89.20
2018-03-21T05:56:10.486Z,89.30
2018-03-21T05:58:38.015Z,89.30
2018-03-21T06:01:05.518Z,89.50
2018-03-21T06:03:33.033Z,89.60
2018-03-21T06:06:00.550Z,89.70
2018-03-21T06:08:28.082Z,89.60
2018-03-21T06:10:55.596Z,89.60
2018-03-21T06:13:23.122Z,89.50
2018-03-21T06:15:50.633Z,89.30
2018-03-21T06:18:18.154Z,89.70
2018-03-21T06:20:46.428Z,89.40
2018-03-21T06:23:14.723Z,89.30
2018-03-21T06:25:42.242Z,89.20
2018-03-21T06:28:09.770Z,91.70
2018-03-21T06:30:37.287Z,92.00
2018-03-21T06:33:05.566Z,90.80
2018-03-21T06:35:33.844Z,90.20
2018-03-21T06:38:02.156Z,90.00
2018-03-21T06:40:29.685Z,90.00
2018-03-21T06:42:57.975Z,89.70
2018-03-21T06:45:26.023Z,89.60
2018-03-21T06:47:54.315Z,89.30
2018-03-21T06:50:22.590Z,89.00
2018-03-21T06:52:50.880Z,88.90
2018-03-21T06:55:18.394Z,88.80
2018-03-21T06:57:45.934Z,88.70
2018-03-21T07:00:13.443Z,89.10
2018-03-21T07:02:41.746Z,88.30
2018-03-21T07:05:09.254Z,88.30
2018-03-21T07:07:36.787Z,88.20
2018-03-21T07:10:04.297Z,87.80
2018-03-21T07:12:32.595Z,87.80
2018-03-21T07:15:11.821Z,87.80
2018-03-21T07:17:39.347Z,86.90
2018-03-21T07:20:07.655Z,86.00
2018-03-21T07:22:35.942Z,85.50
2018-03-21T07:25:03.454Z,85.40
2018-03-21T07:27:30.983Z,85.20
2018-03-21T07:29:58.494Z,85.50
2018-03-21T07:32:27.526Z,83.90
2018-03-21T07:34:55.039Z,83.80
2018-03-21T07:37:22.562Z,81.80
2018-03-21T07:39:50.073Z,80.00
2018-03-21T07:42:18.355Z,76.90
2018-03-21T07:44:46.641Z,76.10
2018-03-21T07:47:14.150Z,76.00
2018-03-21T07:49:41.690Z,76.60
2018-03-21T07:52:09.208Z,77.30
2018-03-21T07:54:37.516Z,74.40
2018-03-21T07:57:05.056Z,74.30
2018-03-21T07:59:33.350Z,74.60
2018-03-21T08:02:00.868Z,74.50
2018-03-21T08:04:32.356Z,70.60
2018-03-21T08:06:59.885Z,70.50
2018-03-21T08:09:28.184Z,68.50
2018-03-21T08:11:56.466Z,68.60
2018-03-21T08:14:24.764Z,69.20
2018-03-21T08:16:52.275Z,69.20
2018-03-21T08:19:19.800Z,66.60
2018-03-21T08:21:47.315Z,66.90
2018-03-21T08:24:15.610Z,65.50
2018-03-21T08:26:43.124Z,65.50
2018-03-21T08:29:10.648Z,65.60
2018-03-21T08:31:38.158Z,64.30
2018-03-21T08:34:06.445Z,62.80
2018-03-21T08:36:34.707Z,62.50
2018-03-21T08:39:02.223Z,62.40
2018-03-21T08:41:29.726Z,60.90
2018-03-21T08:43:57.254Z,59.40
2018-03-21T08:46:24.760Z,57.50
2018-03-21T08:48:53.043Z,56.70
2018-03-21T08:51:21.319Z,56.60
2018-03-21T08:53:49.607Z,56.50
2018-03-21T08:56:17.103Z,56.50
2018-03-21T08:58:44.616Z,56.10
2018-03-21T09:01:12.891Z,57.10
2018-03-21T09:03:41.209Z,57.80
2018-03-21T09:06:08.719Z,57.80
2018-03-21T09:08:37.755Z,55.90
2018-03-21T09:11:05.267Z,55.80
2018-03-21T09:13:32.829Z,55.70
2018-03-21T09:16:00.341Z,55.60
2018-03-21T09:18:27.849Z,57.50
2018-03-21T09:20:56.142Z,56.80
2018-03-21T09:23:24.460Z,56.10
2018-03-21T09:25:52.711Z,57.60
2018-03-21T09:28:20.213Z,57.50
2018-03-21T09:30:47.726Z,58.00
2018-03-21T09:33:15.998Z,57.10
2018-03-21T09:35:44.292Z,56.00
2018-03-21T09:38:11.803Z,55.90
2018-03-21T09:40:39.324Z,57.10
2018-03-21T09:43:06.830Z,56.20
2018-03-21T09:45:34.343Z,54.40
2018-03-21T09:48:01.855Z,53.70
2018-03-21T09:50:29.375Z,53.10
2018-03-21T09:52:56.878Z,53.30
2018-03-21T09:55:25.171Z,53.40
2018-03-21T09:57:53.445Z,52.00
2018-03-21T10:00:21.737Z,50.40
2018-03-21T10:02:49.237Z,50.30
2018-03-21T10:05:16.754Z,49.90
2018-03-21T10:07:45.041Z,51.40
2018-03-21T10:10:12.566Z,51.40
2018-03-21T10:12:40.074Z,49.70
2018-03-21T10:15:07.594Z,51.30
2018-03-21T10:17:35.874Z,49.40
2018-03-21T10:20:04.164Z,50.50
2018-03-21T10:22:31.667Z,50.40
2018-03-21T10:24:59.184Z,50.20
2018-03-21T10:27:27.460Z,47.50
2018-03-21T10:29:54.989Z,47.40
2018-03-21T10:32:22.482Z,48.30
2018-03-21T10:34:50.753Z,49.20
2018-03-21T10:37:18.275Z,49.20
2018-03-21T10:39:45.777Z,48.40
2018-03-21T10:42:14.074Z,47.80
2018-03-21T10:44:41.587Z,47.80
2018-03-21T10:47:09.111Z,47.60
2018-03-21T10:49:36.619Z,48.80
2018-03-21T10:52:04.912Z,47.60
2018-03-21T10:54:33.253Z,45.60
2018-03-21T10:57:00.731Z,45.50
2018-03-21T10:59:29.019Z,45.90
2018-03-21T11:02:02.959Z,46.00
2018-03-21T11:04:30.418Z,46.00
2018-03-21T11:06:57.933Z,46.40
2018-03-21T11:09:25.435Z,45.10
2018-03-21T11:11:53.202Z,44.00
2018-03-21T11:14:21.442Z,40.70
2018-03-21T11:16:49.718Z,42.50
2018-03-21T11:19:18.006Z,42.70
2018-03-21T11:21:46.299Z,41.60
2018-03-21T11:24:13.791Z,41.60
2018-03-21T11:26:41.303Z,41.60
2018-03-21T11:29:09.575Z,48.70
2018-03-21T11:31:37.854Z,49.70
2018-03-21T11:34:05.396Z,49.60
2018-03-21T11:36:33.678Z,50.40
2018-03-21T11:39:01.952Z,48.40
2018-03-21T11:41:30.247Z,46.30
2018-03-21T11:43:57.751Z,46.30
2018-03-21T11:46:25.280Z,46.30
2018-03-21T11:48:52.778Z,46.60
2018-03-21T11:51:20.292Z,48.10
2018-03-21T11:53:47.782Z,47.10
2018-03-21T11:56:15.294Z,46.90
2018-03-21T11:58:43.566Z,45.40
2018-03-21T12:01:11.870Z,45.20
2018-03-21T12:03:39.367Z,45.10
2018-03-21T12:06:06.862Z,43.60
2018-03-21T12:08:35.204Z,43.60
2018-03-21T12:11:03.418Z,42.10
2018-03-21T12:13:31.698Z,42.50
2018-03-21T12:15:59.962Z,43.80
2018-03-21T12:18:27.474Z,43.70
2018-03-21T12:20:54.981Z,43.00
2018-03-21T12:23:22.492Z,41.30
2018-03-21T12:25:50.754Z,43.80
2018-03-21T12:28:18.267Z,43.70
2018-03-21T12:30:45.770Z,43.60
2018-03-21T12:33:13.290Z,48.20
2018-03-21T12:35:40.782Z,48.00
2018-03-21T12:38:08.307Z,42.50
2018-03-21T12:40:36.782Z,40.10
2018-03-21T12:43:04.307Z,40.40
2018-03-21T12:45:31.802Z,40.30
2018-03-21T12:47:59.326Z,40.40
2018-03-21T12:50:26.827Z,40.70
2018-03-21T12:52:54.354Z,41.70
2018-03-21T12:55:21.846Z,41.80
2018-03-21T12:57:49.374Z,46.70
2018-03-21T13:00:16.872Z,47.10
2018-03-21T13:02:45.164Z,44.50
2018-03-21T13:05:13.444Z,44.90
2018-03-21T13:07:41.779Z,43.60
2018-03-21T13:10:09.238Z,43.60
2018-03-21T13:12:36.763Z,47.20
2018-03-21T13:15:04.262Z,44.40
2018-03-21T13:17:31.782Z,41.70
2018-03-21T13:19:59.279Z,39.40
2018-03-21T13:22:27.035Z,41.00
2018-03-21T13:24:54.530Z,39.10
2018-03-21T13:27:22.827Z,40.60
2018-03-21T13:29:51.104Z,40.90
2018-03-21T13:32:19.367Z,39.60
2018-03-21T13:34:48.403Z,41.20
2018-03-21T13:37:15.907Z,41.20
2018-03-21T13:39:43.433Z,40.30
2018-03-21T13:42:10.946Z,40.10
2018-03-21T13:44:39.234Z,40.40
2018-03-21T13:47:07.497Z,42.20
2018-03-21T13:49:35.792Z,42.20
2018-03-21T13:52:04.054Z,41.80
2018-03-21T13:54:31.563Z,41.90
2018-03-21T13:56:59.059Z,41.70
2018-03-21T13:59:26.574Z,42.80
2018-03-21T14:01:54.234Z,41.90
2018-03-21T14:04:21.758Z,43.20
2018-03-21T14:06:50.027Z,40.50
2018-03-21T14:09:17.540Z,40.50
2018-03-21T14:11:45.062Z,39.80
2018-03-21T14:14:13.353Z,38.80
2018-03-21T14:16:41.620Z,38.90
2018-03-21T14:19:09.894Z,38.10
2018-03-21T14:21:38.163Z,39.00
2018-03-21T14:24:06.460Z,39.90
2018-03-21T14:26:33.958Z,39.90
2018-03-21T14:29:01.470Z,39.10
2018-03-21T14:31:29.731Z,39.20
2018-03-21T14:33:58.020Z,38.00
2018-03-21T14:36:26.291Z,37.90
2018-03-21T14:38:53.806Z,37.90
2018-03-21T14:41:21.302Z,38.80
2018-03-21T14:43:48.815Z,39.20
2018-03-21T14:46:16.320Z,39.20
2018-03-21T14:48:43.843Z,37.50
2018-03-21T14:51:11.332Z,36.80
2018-03-21T14:53:38.845Z,35.50
2018-03-21T14:56:06.347Z,34.40
2018-03-21T14:58:33.858Z,34.00
2018-03-21T15:01:01.374Z,34.70
2018-03-21T15:03:28.888Z,33.70
2018-03-21T15:05:56.390Z,36.20
2018-03-21T15:08:23.912Z,36.40
2018-03-21T15:10:52.181Z,35.30
2018-03-21T15:13:19.688Z,35.20
2018-03-21T15:15:47.211Z,35.40
2018-03-21T15:18:15.469Z,36.00
2018-03-21T15:20:42.982Z,35.90
2018-03-21T15:23:10.475Z,36.70
2018-03-21T15:25:38.769Z,36.60
2018-03-21T15:28:07.182Z,36.60
2018-03-21T15:30:34.694Z,37.70
2018-03-21T15:33:02.959Z,35.90
2018-03-21T15:35:31.242Z,33.80
2018-03-21T15:37:58.762Z,33.70
2018-03-21T15:40:26.284Z,32.30
2018-03-21T15:42:53.787Z,32.60
2018-03-21T15:45:21.307Z,32.70
2018-03-21T15:47:48.810Z,32.80
2018-03-21T15:50:16.322Z,32.30
2018-03-21T15:52:43.817Z,32.30
2018-03-21T15:55:11.335Z,36.00
2018-03-21T15:57:38.850Z,33.90
2018-03-21T16:00:06.375Z,34.10
2018-03-21T16:02:34.636Z,34.20
2018-03-21T16:05:02.155Z,34.10
2018-03-21T16:07:29.650Z,33.40
2018-03-21T16:09:57.926Z,31.70
2018-03-21T16:12:25.436Z,31.70
2018-03-21T16:14:52.957Z,32.10
2018-03-21T16:17:20.446Z,33.60
2018-03-21T16:19:47.958Z,33.10
2018-03-21T16:22:15.470Z,32.70
2018-03-21T16:24:43.751Z,32.50
2018-03-21T16:27:11.274Z,32.40
2018-03-21T16:29:38.790Z,33.30
2018-03-21T16:32:06.290Z,32.90
2018-03-21T16:34:33.802Z,33.20
2018-03-21T16:37:01.295Z,32.80
2018-03-21T16:39:28.818Z,32.90
2018-03-21T16:41:57.078Z,35.90
2018-03-21T16:44:25.357Z,33.90
2018-03-21T16:46:53.617Z,34.90
2018-03-21T16:49:21.133Z,34.90
2018-03-21T16:51:48.647Z,34.70
2018-03-21T16:54:16.914Z,34.70
2018-03-21T16:56:44.429Z,34.70
2018-03-21T16:59:11.934Z,34.80
2018-03-21T17:01:39.469Z,34.50
2018-03-21T17:04:06.967Z,35.20
2018-03-21T17:06:35.259Z,35.50
2018-03-21T17:09:03.543Z,35.50
2018-03-21T17:11:31.066Z,35.40
2018-03-21T17:13:58.563Z,35.90
2018-03-21T17:16:26.079Z,36.20
2018-03-21T17:18:53.599Z,36.10
2018-03-21T17:21:21.111Z,36.30
2018-03-21T17:23:48.618Z,36.60
2018-03-21T17:26:16.128Z,36.90
2018-03-21T17:28:44.594Z,36.80
2018-03-21T17:31:12.119Z,36.70
2018-03-21T17:33:39.624Z,36.70
2018-03-21T17:36:07.147Z,36.40
2018-03-21T17:38:34.658Z,35.90
2018-03-21T17:41:02.938Z,37.30
2018-03-21T17:43:31.244Z,37.70
2018-03-21T17:45:58.776Z,37.60
2018-03-21T17:48:26.279Z,37.80
2018-03-21T17:50:53.792Z,37.80
2018-03-21T17:53:22.066Z,38.40
2018-03-21T17:55:49.579Z,38.30
2018-03-21T17:58:17.091Z,38.80
2018-03-21T18:00:45.369Z,39.10
2018-03-21T18:03:13.639Z,39.70
2018-03-21T18:05:41.927Z,40.00
2018-03-21T18:08:10.205Z,39.80
2018-03-21T18:10:38.482Z,39.20
2018-03-21T18:13:06.739Z,39.10
2018-03-21T18:15:34.259Z,39.10
2018-03-21T18:18:01.758Z,39.10
2018-03-21T18:20:29.272Z,39.60
2018-03-21T18:22:56.779Z,39.70
2018-03-21T18:25:24.284Z,39.60
2018-03-21T18:27:51.798Z,39.50
2018-03-21T18:30:19.287Z,39.90
2018-03-21T18:32:47.570Z,40.20
2018-03-21T18:35:15.064Z,40.20
2018-03-21T18:37:42.588Z,42.40
2018-03-21T18:40:10.087Z,42.60
2018-03-21T18:42:37.612Z,42.40
2018-03-21T18:45:05.112Z,41.70
2018-03-21T18:47:32.623Z,41.90
2018-03-21T18:50:00.898Z,43.00
2018-03-21T18:52:29.196Z,43.30
2018-03-21T18:54:56.704Z,43.90
2018-03-21T18:57:24.232Z,43.50
2018-03-21T18:59:51.742Z,44.80
2018-03-21T19:02:19.263Z,50.30
2018-03-21T19:04:46.767Z,49.30
2018-03-21T19:07:14.283Z,47.60
2018-03-21T19:09:41.786Z,45.90
2018-03-21T19:12:10.073Z,44.60
2018-03-21T19:14:38.343Z,44.80
2018-03-21T19:17:05.866Z,44.80
2018-03-21T19:19:33.380Z,44.80
2018-03-21T19:22:00.911Z,44.50
2018-03-21T19:24:28.424Z,44.70
2018-03-21T19:26:55.963Z,44.10
2018-03-21T19:29:23.466Z,43.90
2018-03-21T19:31:50.988Z,44.80
2018-03-21T19:34:18.519Z,45.40
2018-03-21T19:36:46.063Z,45.80
2018-03-21T19:39:13.599Z,46.20
2018-03-21T19:41:41.160Z,46.50
2018-03-21T19:44:08.666Z,46.90
2018-03-21T19:46:36.953Z,47.10
2018-03-21T19:49:04.543Z,47.10
2018-03-21T19:51:32.093Z,47.20
2018-03-21T19:53:59.680Z,47.40
2018-03-21T19:56:27.173Z,47.60
2018-03-21T19:58:55.551Z,48.20
2018-03-21T20:01:23.910Z,48.50
2018-03-21T20:03:51.527Z,48.50
2018-03-21T20:06:19.075Z,49.10
2018-03-21T20:08:47.395Z,50.00
2018-03-21T20:11:15.016Z,50.00
2018-03-21T20:13:42.579Z,50.20
2018-03-21T20:16:10.135Z,49.60
2018-03-21T20:18:38.460Z,50.60
2018-03-21T20:21:05.979Z,50.50
2018-03-21T20:23:33.543Z,50.90
2018-03-21T20:26:01.088Z,51.60
2018-03-21T20:28:28.658Z,51.90
2018-03-21T20:30:56.205Z,52.00
2018-03-21T20:33:24.568Z,52.00
2018-03-21T20:35:52.150Z,51.90
2018-03-21T20:38:20.495Z,52.60
2018-03-21T20:40:48.845Z,52.90
2018-03-21T20:43:16.456Z,52.90
2018-03-21T20:45:44.746Z,53.20
2018-03-21T20:48:13.076Z,53.80
2018-03-21T20:50:40.606Z,53.80
2018-03-21T20:53:08.209Z,54.00
2018-03-21T20:55:35.790Z,53.80
2018-03-21T20:58:04.180Z,53.60
2018-03-21T21:00:32.510Z,53.20
2018-03-21T21:03:00.063Z,53.20
2018-03-21T21:05:27.636Z,53.10
2018-03-21T21:07:55.186Z,52.30
2018-03-21T21:10:22.776Z,52.50
2018-03-21T21:12:50.307Z,53.20
2018-03-21T21:15:17.912Z,54.00
2018-03-21T21:17:45.495Z,53.90
2018-03-21T21:20:13.818Z,54.20
2018-03-21T21:22:41.399Z,54.20
2018-03-21T21:25:08.944Z,54.70
2018-03-21T21:27:36.547Z,55.10
2018-03-21T21:30:04.854Z,55.10
2018-03-21T21:32:33.205Z,55.30
2018-03-21T21:35:01.523Z,55.80
2018-03-21T21:37:29.064Z,55.80
2018-03-21T21:39:57.435Z,56.00
2018-03-21T21:42:25.719Z,56.30
2018-03-21T21:44:53.292Z,56.30
2018-03-21T21:47:20.902Z,56.50
2018-03-21T21:49:48.479Z,56.80
2018-03-21T21:52:16.851Z,57.10
2018-03-21T21:54:44.383Z,57.00
2018-03-21T21:57:11.971Z,57.20
2018-03-21T21:59:39.498Z,56.90
2018-03-21T22:02:07.065Z,56.60
2018-03-21T22:04:34.638Z,56.50
2018-03-21T22:07:02.211Z,56.40
2018-03-21T22:09:29.804Z,56.20
2018-03-21T22:11:57.342Z,56.10
2018-03-21T22:14:24.880Z,56.10
2018-03-21T22:16:52.505Z,55.90
2018-03-21T22:19:20.088Z,56.10
2018-03-21T22:21:47.713Z,56.20
2018-03-21T22:24:16.058Z,56.10
2018-03-21T22:26:43.608Z,56.10
2018-03-21T22:29:11.193Z,56.40
2018-03-21T22:31:39.603Z,56.40
2018-03-21T22:34:07.927Z,56.50
2018-03-21T22:36:35.607Z,56.50
2018-03-21T22:39:03.185Z,56.80
2018-03-21T22:41:31.550Z,57.10
2018-03-21T22:43:59.877Z,57.30
2018-03-21T22:46:27.468Z,57.30
2018-03-21T22:48:55.092Z,57.60
2018-03-21T22:51:22.650Z,58.10
2018-03-21T22:53:50.271Z,58.20
2018-03-21T22:56:18.660Z,57.70
2018-03-21T22:58:47.095Z,57.80
2018-03-21T23:01:14.702Z,57.70
2018-03-21T23:03:42.338Z,58.00
2018-03-21T23:06:09.995Z,58.10
2018-03-21T23:08:37.626Z,58.50
2018-03-21T23:11:05.249Z,58.80
2018-03-21T23:13:32.871Z,59.60
2018-03-21T23:16:01.154Z,59.40
2018-03-21T23:18:28.713Z,59.30
2018-03-21T23:20:56.268Z,59.50
2018-03-21T23:23:23.824Z,59.60
2018-03-21T23:25:51.381Z,59.50
2018-03-21T23:28:19.786Z,59.70
2018-03-21T23:30:47.391Z,59.70
2018-03-21T23:33:15.012Z,59.70
2018-03-21T23:35:42.633Z,59.70
2018-03-21T23:38:10.248Z,59.70
2018-03-21T23:40:37.811Z,59.90
2018-03-21T23:43:05.468Z,59.90
2018-03-21T23:45:33.062Z,59.80
2018-03-21T23:48:00.644Z,60.00
2018-03-21T23:50:28.282Z,59.80
2018-03-21T23:52:56.619Z,58.50
2018-03-21T23:55:24.183Z,58.50
2018-03-21T23:57:51.775Z,57.50
